NKS973 KFLL-KMSY
Flight info
| Callsign | NKS973 |
|---|---|
| Flight time | N/A |
| Altitude | 36000 |
| Route | BNICE2 DOLIE Y280 REDFN Q105 HRV |
| Aircraft | A321/M-SDE3FGHIRWY/LB1 |
Departure
| Time | N/A |
|---|---|
| Airport | Fort Lauderdale Hollywood International Airport (KFLL) |
Arrival
| Time | 2026-05-04 16:32 |
|---|---|
| Airport | Louis Armstrong New Orleans International Airport (KMSY) |
| Time | Latitude | Longitude | Altitude | Speed | Heading |
|---|---|---|---|---|---|
| 2026-05-04 16:07 | 29.18659 | -89.10568 | 32229 ft | 371 kts | 307° |
| 2026-05-04 16:08 | 29.20341 | -89.12817 | 31976 ft | 371 kts | 308° |
| 2026-05-04 16:08 | 29.25409 | -89.19597 | 31210 ft | 376 kts | 308° |
| 2026-05-04 16:09 | 29.28827 | -89.24176 | 30693 ft | 379 kts | 308° |
| 2026-05-04 16:09 | 29.32274 | -89.28800 | 29778 ft | 384 kts | 307° |
| 2026-05-04 16:10 | 29.35718 | -89.33428 | 28754 ft | 380 kts | 307° |
| 2026-05-04 16:11 | 29.40829 | -89.40311 | 27484 ft | 371 kts | 307° |
| 2026-05-04 16:11 | 29.42486 | -89.42542 | 27022 ft | 369 kts | 307° |
| 2026-05-04 16:12 | 29.47425 | -89.49205 | 25616 ft | 359 kts | 308° |
| 2026-05-04 16:12 | 29.52217 | -89.55679 | 24238 ft | 350 kts | 307° |
| 2026-05-04 16:13 | 29.55341 | -89.59910 | 23347 ft | 344 kts | 308° |
| 2026-05-04 16:13 | 29.58429 | -89.64089 | 22463 ft | 339 kts | 307° |
| 2026-05-04 16:14 | 29.61459 | -89.68218 | 21582 ft | 336 kts | 307° |
| 2026-05-04 16:14 | 29.64454 | -89.72299 | 20730 ft | 333 kts | 307° |
| 2026-05-04 16:15 | 29.68925 | -89.78378 | 19503 ft | 329 kts | 307° |
| 2026-05-04 16:16 | 29.71867 | -89.82381 | 18661 ft | 327 kts | 308° |
| 2026-05-04 16:16 | 29.76271 | -89.88378 | 17389 ft | 326 kts | 308° |
| 2026-05-04 16:17 | 29.79227 | -89.92409 | 16462 ft | 328 kts | 308° |
| 2026-05-04 16:18 | 29.83635 | -89.98521 | 15017 ft | 331 kts | 302° |
| 2026-05-04 16:18 | 29.84614 | -90.00899 | 14526 ft | 331 kts | 286° |
| 2026-05-04 16:19 | 29.84896 | -90.08807 | 13118 ft | 333 kts | 269° |
| 2026-05-04 16:19 | 29.84784 | -90.14141 | 12198 ft | 332 kts | 269° |
| 2026-05-04 16:20 | 29.84636 | -90.22124 | 10841 ft | 331 kts | 269° |
| 2026-05-04 16:20 | 29.84542 | -90.27368 | 10213 ft | 319 kts | 269° |
| 2026-05-04 16:21 | 29.84411 | -90.34601 | 9840 ft | 286 kts | 270° |
| 2026-05-04 16:22 | 29.84330 | -90.39151 | 9113 ft | 284 kts | 269° |
| 2026-05-04 16:22 | 29.84204 | -90.45929 | 8059 ft | 281 kts | 269° |
| 2026-05-04 16:23 | 29.84090 | -90.52647 | 6986 ft | 280 kts | 272° |
| 2026-05-04 16:24 | 29.89896 | -90.56615 | 5543 ft | 283 kts | 13° |
| 2026-05-04 16:25 | 29.93699 | -90.55587 | 5064 ft | 274 kts | 13° |
| 2026-05-04 16:26 | 30.00551 | -90.53854 | 4713 ft | 236 kts | 13° |
| 2026-05-04 16:26 | 30.05310 | -90.52502 | 4062 ft | 235 kts | 34° |
| 2026-05-04 16:27 | 30.06596 | -90.49423 | 3651 ft | 218 kts | 103° |
| 2026-05-04 16:28 | 30.04452 | -90.45297 | 3050 ft | 185 kts | 127° |
| 2026-05-04 16:28 | 30.02848 | -90.41385 | 2129 ft | 171 kts | 108° |
| 2026-05-04 16:29 | 30.01657 | -90.36426 | 1337 ft | 145 kts | 107° |
| 2026-05-04 16:30 | 30.00848 | -90.33079 | 822 ft | 143 kts | 107° |
| 2026-05-04 16:31 | 30.00312 | -90.30868 | 472 ft | 143 kts | 107° |
| 2026-05-04 16:31 | 29.99515 | -90.27546 | 13 ft | 133 kts | 107° |
| 2026-05-04 16:32 | 29.99127 | -90.25953 | 12 ft | 31 kts | 105° |
| 2026-05-04 16:33 | 29.99088 | -90.25657 | 12 ft | 12 kts | 38° |
| 2026-05-04 16:33 | 29.99190 | -90.25623 | 12 ft | 2 kts | 339° |
| 2026-05-04 16:34 | 29.99253 | -90.25659 | 12 ft | 5 kts | 344° |
| 2026-05-04 16:34 | 29.99285 | -90.25668 | 12 ft | 2 kts | 347° |
| 2026-05-04 16:35 | 29.99291 | -90.25670 | 12 ft | 0 kts | 347° |